createdAt,value
2023-04-02T00:03:26.195Z,1.234113712374582
2023-04-02T00:09:45.451Z,1.3678929765886287
2023-04-02T00:16:05.176Z,1.4381270903010033
2023-04-02T00:22:23.954Z,1.6755852842809364
2023-04-02T00:28:42.825Z,1.4247491638795986
2023-04-02T00:35:01.873Z,1.2006688963210703
2023-04-02T00:41:20.376Z,0.8260869565217391
2023-04-02T00:52:04.164Z,0.8963210702341137
2023-04-02T00:58:23.991Z,1.3979933110367893
2023-04-02T01:09:47.786Z,1.2608695652173914
2023-04-02T01:16:05.776Z,0.903010033444816
2023-04-02T01:23:18.889Z,1.1806020066889633
2023-04-02T01:29:38.666Z,0.6387959866220736
2023-04-02T01:38:03.868Z,1.4882943143812708
2023-04-02T01:44:22.960Z,0.8160535117056856
2023-04-02T01:50:41.944Z,0.8896321070234113
2023-04-02T01:57:01.027Z,0.6688963210702341
2023-04-02T02:03:20.196Z,0.5451505016722408
2023-04-02T02:20:13.404Z,0.568561872909699
2023-04-02T02:26:36.495Z,0.6822742474916388
2023-04-02T02:32:56.788Z,0.5852842809364549
2023-04-02T02:39:15.804Z,0.6254180602006689
2023-04-02T02:48:05.275Z,0.40468227424749165
2023-04-02T02:54:23.715Z,0.6287625418060201
2023-04-02T03:00:46.511Z,1.1906354515050168
2023-04-02T03:12:39.813Z,0.7090301003344481
2023-04-02T03:18:59.840Z,0.7290969899665551
2023-04-02T03:25:19.138Z,0.782608695652174
2023-04-02T03:31:38.658Z,0.35451505016722407
2023-04-02T03:37:58.786Z,0.7357859531772575
2023-04-02T03:44:18.220Z,0.5418060200668896
2023-04-02T03:50:36.947Z,0.5719063545150501
2023-04-02T03:58:13.838Z,0.3311036789297659
2023-04-02T04:04:34.519Z,0.39464882943143814
2023-04-02T04:14:51.416Z,0.3377926421404682
2023-04-02T04:21:10.853Z,0.6086956521739131
2023-04-02T04:27:29.722Z,0.26755852842809363
2023-04-02T04:33:48.472Z,0.29431438127090304
2023-04-02T04:40:07.644Z,0.07357859531772576
2023-04-02T04:50:36.896Z,0.36789297658862874
2023-04-02T04:59:41.566Z,0.28762541806020064
2023-04-02T05:06:00.160Z,0.28762541806020064
2023-04-02T05:12:20.230Z,0.3612040133779264
2023-04-02T05:18:41.445Z,0.22408026755852842
2023-04-02T05:25:03.308Z,0.22742474916387959
2023-04-02T05:33:16.302Z,0.15719063545150502
2023-04-02T05:39:38.030Z,0.2508361204013378
2023-04-02T05:45:59.258Z,0.19063545150501673
2023-04-02T05:52:19.775Z,0.3311036789297659
2023-04-02T05:59:51.207Z,0.30434782608695654
2023-04-02T06:06:14.579Z,0.05016722408026756
2023-04-02T06:12:35.887Z,0.1939799331103679
2023-04-02T06:18:58.212Z,0.21739130434782608
2023-04-02T06:25:19.616Z,0.34782608695652173
2023-04-02T06:31:50.694Z,0.41471571906354515
2023-04-02T06:43:54.908Z,0.39464882943143814
2023-04-02T06:50:16.756Z,0.24414715719063546
2023-04-02T06:56:38.832Z,0.04013377926421405
2023-04-02T07:03:02.901Z,0.10702341137123746
2023-04-02T07:09:27.898Z,0.0903010033444816
2023-04-02T07:15:50.978Z,0.13043478260869565
2023-04-02T07:22:14.187Z,0.24414715719063546
2023-04-02T07:28:36.802Z,0.3110367892976589
2023-04-02T07:41:20.826Z,0.45819397993311034
2023-04-02T07:47:42.033Z,0.15719063545150502
2023-04-02T07:54:03.005Z,0.10033444816053512
2023-04-02T08:00:24.312Z,0.0903010033444816
2023-04-02T08:06:46.299Z,0.19063545150501673
2023-04-02T08:13:07.401Z,0.23076923076923078
2023-04-02T08:19:28.203Z,0.23411371237458195
2023-04-02T08:31:22.293Z,0.20066889632107024
2023-04-02T08:37:43.365Z,0.0903010033444816
2023-04-02T08:44:04.728Z,0.023411371237458192
2023-04-02T08:50:24.394Z,0.2408026755852843
2023-04-02T08:59:51.183Z,0.2608695652173913
2023-04-02T09:06:10.613Z,0.20735785953177258
2023-04-02T09:12:30.827Z,0.24749163879598662
2023-04-02T09:18:52.482Z,0.10033444816053512
2023-04-02T09:29:45.017Z,0.17725752508361203
2023-04-02T09:37:00.733Z,0.04013377926421405
2023-04-02T09:43:21.782Z,1.491638795986622
2023-04-02T09:49:51.475Z,0.010033444816053512
2023-04-02T10:00:48.316Z,0.07357859531772576
2023-04-02T10:07:09.632Z,0.0802675585284281
2023-04-02T10:13:31.229Z,0.08361204013377926
2023-04-02T10:20:00.010Z,0.07023411371237458
2023-04-02T10:26:29.543Z,0.06688963210702341
2023-04-02T10:33:10.230Z,0.22073578595317725
2023-04-02T10:39:40.045Z,0.10033444816053512
2023-04-02T10:46:04.242Z,0.07692307692307693
2023-04-02T10:52:25.734Z,0.033444816053511704
2023-04-02T10:58:47.068Z,0.020066889632107024
2023-04-02T11:07:31.015Z,0.1505016722408027
2023-04-02T11:16:44.019Z,0.11036789297658862
2023-04-02T11:23:06.034Z,0.2709030100334448
2023-04-02T11:29:27.393Z,0.20066889632107024
2023-04-02T11:35:48.959Z,0.1939799331103679
2023-04-02T11:42:10.641Z,0.08695652173913043
2023-04-02T11:54:49.360Z,0.12040133779264214
2023-04-02T12:01:10.041Z,0.15719063545150502
2023-04-02T12:07:30.508Z,0.10367892976588629
2023-04-02T12:13:51.708Z,3.6956521739130435
2023-04-02T12:24:00.814Z,1.0334448160535117
2023-04-02T12:30:20.897Z,0.16722408026755853
2023-04-02T12:45:00.664Z,0.21070234113712374
2023-04-02T12:51:21.248Z,0.16387959866220736
2023-04-02T13:02:05.253Z,0.07357859531772576
2023-04-02T13:12:48.035Z,0.11371237458193979
2023-04-02T13:19:08.268Z,0.451505016722408
2023-04-02T13:25:27.738Z,0.18729096989966554
2023-04-02T13:31:48.098Z,0.09698996655518395
2023-04-02T13:38:07.954Z,0.18729096989966554
2023-04-02T13:44:27.784Z,0.17391304347826086
2023-04-02T13:50:47.696Z,0.06354515050167224
2023-04-02T13:57:07.663Z,0.24414715719063546
2023-04-02T14:05:21.080Z,0.16722408026755853
2023-04-02T14:11:40.948Z,0.0802675585284281
2023-04-02T14:20:43.639Z,0.12374581939799331
2023-04-02T14:27:04.287Z,0.3277591973244147
2023-04-02T14:33:24.130Z,0.19063545150501673
2023-04-02T14:39:43.809Z,0.22073578595317725
2023-04-02T14:48:56.302Z,0.05016722408026756
2023-04-02T14:55:16.402Z,0.20735785953177258
2023-04-02T15:01:36.858Z,0.3612040133779264
2023-04-02T15:07:56.828Z,0.16387959866220736
2023-04-02T15:14:17.398Z,0.016722408026755852
2023-04-02T15:20:36.633Z,0.14046822742474915
2023-04-02T15:26:56.166Z,0.020066889632107024
2023-04-02T15:33:15.747Z,0.05351170568561873
2023-04-02T15:39:34.938Z,0.07023411371237458
2023-04-02T15:45:54.363Z,0.12709030100334448
2023-04-02T15:52:14.732Z,0.18394648829431437
2023-04-02T16:00:04.643Z,0.030100334448160536
2023-04-02T16:13:10.771Z,0.4180602006688963
2023-04-02T16:19:30.780Z,0.08361204013377926
2023-04-02T16:25:50.724Z,0.28762541806020064
2023-04-02T16:32:12.683Z,0.2508361204013378
2023-04-02T16:38:32.352Z,0.3177257525083612
2023-04-02T16:44:52.921Z,0.15719063545150502
2023-04-02T16:51:14.238Z,0.431438127090301
2023-04-02T16:57:35.514Z,0.3779264214046823
2023-04-02T17:04:00.966Z,0.5785953177257525
2023-04-02T17:17:54.899Z,0.6722408026755853
2023-04-02T17:24:16.618Z,0.49498327759197325
2023-04-02T17:30:38.441Z,0.8729096989966555
2023-04-02T17:37:00.347Z,2.060200668896321
2023-04-02T17:43:21.744Z,1.4247491638795986
2023-04-02T17:49:43.464Z,0.9531772575250836
2023-04-02T17:58:41.888Z,0.8561872909698997
2023-04-02T18:05:04.231Z,0.8260869565217391
2023-04-02T18:11:23.348Z,2.4013377926421406
2023-04-02T18:17:42.481Z,1.3444816053511706
2023-04-02T18:24:01.902Z,2.180602006688963
2023-04-02T18:34:55.601Z,2.294314381270903
2023-04-02T18:41:15.022Z,2.9933110367892977
2023-04-02T18:47:33.888Z,2.511705685618729
2023-04-02T18:53:53.284Z,1.9531772575250836
2023-04-02T19:00:13.706Z,1.5418060200668897
2023-04-02T19:06:33.337Z,1.6755852842809364
2023-04-02T19:20:16.981Z,2.180602006688963
2023-04-02T19:26:36.227Z,2.277591973244147
2023-04-02T19:32:56.660Z,2.230769230769231
2023-04-02T19:39:16.273Z,2.1638795986622075
2023-04-02T19:45:36.327Z,1.705685618729097
2023-04-02T19:51:56.576Z,2.0100334448160537
2023-04-02T20:08:15.745Z,1.68561872909699
2023-04-02T20:14:37.007Z,0.9297658862876255
2023-04-02T20:20:57.815Z,1.2441471571906355
2023-04-02T20:27:17.725Z,1.4648829431438126
2023-04-02T20:33:38.151Z,2.5986622073578594
2023-04-02T20:39:59.139Z,1.3879598662207357
2023-04-02T20:51:21.043Z,1.2775919732441472
2023-04-02T20:57:41.858Z,1.6755852842809364
2023-04-02T21:04:01.720Z,0.8127090301003345
2023-04-02T21:10:22.975Z,0.6789297658862876
2023-04-02T21:16:44.782Z,1.0568561872909699
2023-04-02T21:23:05.319Z,1.1137123745819397
2023-04-02T21:29:26.752Z,0.9264214046822743
2023-04-02T21:41:14.272Z,1.3010033444816054
2023-04-02T21:47:35.308Z,1.2274247491638797
2023-04-02T21:53:55.504Z,0.9498327759197325
2023-04-02T22:00:16.453Z,1.3478260869565217
2023-04-02T22:06:36.707Z,0.8294314381270903
2023-04-02T22:12:56.808Z,1.1270903010033444
2023-04-02T22:20:30.032Z,1.431438127090301
2023-04-02T22:26:51.187Z,1.1806020066889633
2023-04-02T22:33:11.898Z,0.9264214046822743
2023-04-02T22:44:58.532Z,0.9230769230769231
2023-04-02T22:51:18.850Z,0.9665551839464883
2023-04-02T22:57:39.346Z,1.2441471571906355
2023-04-02T23:03:59.240Z,1.1070234113712374
2023-04-02T23:10:21.436Z,0.8394648829431438
2023-04-02T23:16:41.361Z,1.4682274247491638
2023-04-02T23:23:02.953Z,1.4782608695652173
2023-04-02T23:29:22.940Z,1.4983277591973243
2023-04-02T23:35:42.743Z,1.5919732441471572
2023-04-02T23:42:03.729Z,1.2608695652173914
2023-04-02T23:48:22.792Z,1.3010033444816054
2023-04-02T23:54:42.842Z,1.1973244147157192
